createdAt,value
2019-01-30T00:00:53.176Z,60.30
2019-01-30T00:03:31.335Z,61.80
2019-01-30T00:06:11.447Z,59.90
2019-01-30T00:08:49.221Z,59.60
2019-01-30T00:11:26.249Z,60.20
2019-01-30T00:14:04.151Z,59.90
2019-01-30T00:16:42.460Z,59.50
2019-01-30T00:19:20.910Z,63.10
2019-01-30T00:22:01.241Z,61.20
2019-01-30T00:24:39.203Z,63.70
2019-01-30T00:27:17.178Z,60.90
2019-01-30T00:30:03.815Z,59.40
2019-01-30T00:32:35.000Z,60.20
2019-01-30T00:35:16.011Z,60.50
2019-01-30T00:37:53.391Z,60.80
2019-01-30T00:40:31.011Z,60.70
2019-01-30T00:43:08.652Z,60.60
2019-01-30T00:45:46.840Z,59.70
2019-01-30T00:48:25.261Z,60.00
2019-01-30T00:51:02.942Z,59.10
2019-01-30T00:53:42.300Z,59.00
2019-01-30T00:56:20.160Z,58.90
2019-01-30T00:58:58.802Z,58.80
2019-01-30T01:01:38.577Z,58.90
2019-01-30T01:04:16.303Z,59.00
2019-01-30T01:06:54.402Z,59.60
2019-01-30T01:09:36.562Z,59.10
2019-01-30T01:12:20.641Z,61.50
2019-01-30T01:14:58.297Z,60.10
2019-01-30T01:17:37.507Z,59.20
2019-01-30T01:20:20.327Z,61.50
2019-01-30T01:23:03.200Z,59.70
2019-01-30T01:25:42.027Z,58.80
2019-01-30T01:28:21.658Z,59.80
2019-01-30T01:31:03.886Z,60.10
2019-01-30T01:33:42.082Z,59.30
2019-01-30T01:36:21.042Z,60.60
2019-01-30T01:38:59.561Z,61.30
2019-01-30T01:41:39.949Z,59.80
2019-01-30T01:44:21.675Z,59.40
2019-01-30T01:47:00.727Z,61.90
2019-01-30T01:49:43.877Z,62.60
2019-01-30T01:52:21.827Z,62.30
2019-01-30T01:54:59.478Z,60.20
2019-01-30T01:57:44.209Z,59.40
2019-01-30T02:00:35.578Z,59.80
2019-01-30T02:03:13.744Z,60.00
2019-01-30T02:05:54.059Z,59.10
2019-01-30T02:08:32.094Z,60.60
2019-01-30T02:11:11.753Z,59.30
2019-01-30T02:13:53.371Z,59.90
2019-01-30T02:16:33.205Z,59.60
2019-01-30T02:19:20.167Z,59.50
2019-01-30T02:22:01.689Z,59.80
2019-01-30T02:24:43.026Z,60.50
2019-01-30T02:27:24.994Z,59.20
2019-01-30T02:30:23.421Z,59.50
2019-01-30T02:33:05.313Z,62.20
2019-01-30T02:35:45.439Z,62.70
2019-01-30T02:38:24.894Z,59.30
2019-01-30T02:41:13.049Z,63.30
2019-01-30T02:43:52.864Z,64.00
2019-01-30T02:46:34.936Z,63.80
2019-01-30T02:49:15.423Z,63.10
2019-01-30T02:51:53.661Z,60.50
2019-01-30T02:54:31.864Z,60.00
2019-01-30T02:57:10.074Z,59.50
2019-01-30T02:59:50.575Z,59.50
2019-01-30T03:02:28.856Z,60.20
2019-01-30T03:05:07.699Z,59.50
2019-01-30T03:07:46.705Z,59.90
2019-01-30T03:10:33.372Z,59.60
2019-01-30T03:13:11.753Z,60.00
2019-01-30T03:15:52.149Z,59.70
2019-01-30T03:18:30.807Z,63.90
2019-01-30T03:21:11.905Z,61.20
2019-01-30T03:23:53.112Z,62.80
2019-01-30T03:26:30.172Z,60.00
2019-01-30T03:29:08.393Z,60.80
2019-01-30T03:31:46.533Z,60.80
2019-01-30T03:34:24.240Z,60.90
2019-01-30T03:37:03.092Z,62.00
2019-01-30T03:39:44.059Z,61.30
2019-01-30T03:42:22.684Z,62.50
2019-01-30T03:45:03.039Z,61.60
2019-01-30T03:47:41.143Z,61.40
2019-01-30T03:50:19.067Z,62.70
2019-01-30T03:52:59.579Z,61.60
2019-01-30T03:55:38.439Z,61.50
2019-01-30T03:58:26.616Z,62.00
2019-01-30T04:01:04.580Z,62.80
2019-01-30T04:03:41.972Z,63.20
2019-01-30T04:06:24.635Z,62.70
2019-01-30T04:09:03.739Z,63.10
2019-01-30T04:11:43.479Z,64.00
2019-01-30T04:14:22.225Z,63.90
2019-01-30T04:17:00.169Z,63.00
2019-01-30T04:19:40.309Z,63.80
2019-01-30T04:22:23.328Z,63.40
2019-01-30T04:25:06.548Z,62.20
2019-01-30T04:27:45.580Z,63.50
2019-01-30T04:30:29.413Z,63.30
2019-01-30T04:33:07.908Z,62.60
2019-01-30T04:36:03.230Z,65.00
2019-01-30T04:38:42.595Z,64.10
2019-01-30T04:41:25.708Z,61.40
2019-01-30T04:44:05.097Z,61.50
2019-01-30T04:46:43.105Z,60.90
2019-01-30T04:49:38.765Z,60.70
2019-01-30T04:52:19.432Z,60.80
2019-01-30T04:54:59.905Z,61.20
2019-01-30T04:57:39.108Z,60.40
2019-01-30T05:00:21.886Z,61.10
2019-01-30T05:03:02.054Z,60.50
2019-01-30T05:05:45.721Z,60.10
2019-01-30T05:08:27.565Z,60.70
2019-01-30T05:11:21.556Z,60.00
2019-01-30T05:14:15.276Z,59.80
2019-01-30T05:16:59.931Z,59.70
2019-01-30T05:19:38.660Z,59.60
2019-01-30T05:22:20.052Z,59.20
2019-01-30T05:24:59.230Z,59.20
2019-01-30T05:27:48.167Z,59.40
2019-01-30T05:30:35.762Z,59.20
2019-01-30T05:33:16.090Z,59.40
2019-01-30T05:35:56.936Z,59.20
2019-01-30T05:38:42.810Z,58.90
2019-01-30T05:41:23.832Z,59.40
2019-01-30T05:44:01.837Z,59.80
2019-01-30T05:46:44.365Z,59.30
2019-01-30T05:49:25.502Z,61.70
2019-01-30T05:52:13.248Z,59.30
2019-01-30T05:54:52.691Z,59.50
2019-01-30T05:57:35.531Z,59.90
2019-01-30T06:00:20.768Z,60.20
2019-01-30T06:03:00.953Z,60.50
2019-01-30T06:05:52.015Z,61.30
2019-01-30T06:08:54.125Z,61.40
2019-01-30T06:11:32.964Z,62.20
2019-01-30T06:14:11.619Z,62.50
2019-01-30T06:16:56.281Z,62.70
2019-01-30T06:19:38.691Z,63.40
2019-01-30T06:22:21.973Z,63.50
2019-01-30T06:25:10.099Z,63.50
2019-01-30T06:27:53.385Z,64.00
2019-01-30T06:30:36.800Z,63.50
2019-01-30T06:33:24.455Z,64.50
2019-01-30T06:36:12.223Z,64.20
2019-01-30T06:38:52.364Z,64.70
2019-01-30T06:41:41.137Z,65.10
2019-01-30T06:44:22.659Z,65.80
2019-01-30T06:47:03.744Z,65.60
2019-01-30T06:49:58.347Z,66.10
2019-01-30T06:52:57.042Z,66.40
2019-01-30T06:55:44.779Z,66.00
2019-01-30T06:58:26.144Z,66.20
2019-01-30T07:01:08.126Z,65.70
2019-01-30T07:03:49.402Z,66.30
2019-01-30T07:06:35.227Z,66.00
2019-01-30T07:09:21.505Z,64.80
2019-01-30T07:12:00.676Z,66.10
2019-01-30T07:14:41.371Z,65.80
2019-01-30T07:17:21.263Z,65.30
2019-01-30T07:20:02.278Z,68.80
2019-01-30T07:22:53.835Z,66.90
2019-01-30T07:25:36.726Z,65.50
2019-01-30T07:28:17.666Z,65.90
2019-01-30T07:30:59.355Z,65.00
2019-01-30T07:33:40.477Z,66.10
2019-01-30T07:36:19.721Z,66.30
2019-01-30T07:39:00.438Z,65.50
2019-01-30T07:41:46.095Z,67.60
2019-01-30T07:44:28.624Z,64.60
2019-01-30T07:47:09.252Z,67.40
2019-01-30T07:49:51.687Z,65.60
2019-01-30T07:52:32.783Z,63.90
2019-01-30T07:55:18.975Z,63.90
2019-01-30T07:58:00.797Z,64.20
2019-01-30T08:00:56.613Z,64.20
2019-01-30T08:03:38.989Z,63.50
2019-01-30T08:06:19.780Z,64.20
2019-01-30T08:09:04.507Z,63.80
2019-01-30T08:11:52.406Z,64.20
2019-01-30T08:14:32.246Z,63.10
2019-01-30T08:17:13.020Z,63.20
2019-01-30T08:20:04.729Z,62.90
2019-01-30T08:22:54.376Z,63.30
2019-01-30T08:25:35.342Z,64.00
2019-01-30T08:28:15.972Z,65.30
2019-01-30T08:30:59.239Z,63.70
2019-01-30T08:33:44.170Z,63.70
2019-01-30T08:36:26.050Z,64.20
2019-01-30T08:39:18.529Z,66.20
2019-01-30T08:42:01.706Z,63.90
2019-01-30T08:44:54.534Z,66.60
2019-01-30T08:47:43.036Z,64.80
2019-01-30T08:50:26.623Z,62.60
2019-01-30T08:53:10.022Z,62.20
2019-01-30T08:55:50.045Z,63.70
2019-01-30T08:58:33.809Z,63.70
2019-01-30T09:01:15.919Z,63.40
2019-01-30T09:04:06.156Z,63.40
2019-01-30T09:06:44.543Z,63.80
2019-01-30T09:09:23.746Z,66.50
2019-01-30T09:12:10.961Z,67.50
2019-01-30T09:14:57.206Z,67.30
2019-01-30T09:17:36.920Z,66.40
2019-01-30T09:20:22.404Z,65.60
2019-01-30T09:23:01.293Z,65.00
2019-01-30T09:25:40.305Z,65.60
2019-01-30T09:28:25.059Z,64.80
2019-01-30T09:31:07.839Z,64.10
2019-01-30T09:33:47.053Z,64.50
2019-01-30T09:36:27.980Z,64.20
2019-01-30T09:39:10.313Z,66.20
2019-01-30T09:41:52.361Z,65.70
2019-01-30T09:44:35.018Z,63.10
2019-01-30T09:47:18.659Z,63.00
2019-01-30T09:50:00.872Z,62.80
2019-01-30T09:52:42.202Z,63.60
2019-01-30T09:55:23.878Z,63.80
2019-01-30T09:58:02.458Z,63.30
2019-01-30T10:00:42.842Z,63.60
2019-01-30T10:03:21.097Z,64.60
2019-01-30T10:06:09.581Z,64.20
2019-01-30T10:08:49.119Z,64.60
2019-01-30T10:11:29.913Z,64.90
2019-01-30T10:14:18.871Z,64.90
2019-01-30T10:17:01.277Z,64.20
2019-01-30T10:19:41.883Z,65.10
2019-01-30T10:22:25.102Z,65.30
2019-01-30T10:25:03.443Z,64.00
2019-01-30T10:27:43.388Z,64.20
2019-01-30T10:30:27.916Z,63.40
2019-01-30T10:33:16.726Z,63.40
2019-01-30T10:36:03.350Z,63.70
2019-01-30T10:38:42.515Z,64.10
2019-01-30T10:41:20.261Z,64.40
2019-01-30T10:44:04.893Z,63.90
2019-01-30T10:46:51.359Z,63.10
2019-01-30T10:49:32.518Z,64.50
2019-01-30T10:52:10.253Z,62.90
2019-01-30T10:54:48.442Z,63.10
2019-01-30T10:57:27.544Z,65.10
2019-01-30T11:00:08.169Z,64.20
2019-01-30T11:02:48.593Z,67.10
2019-01-30T11:05:29.094Z,63.90
2019-01-30T11:08:10.116Z,68.70
2019-01-30T11:10:50.745Z,71.40
2019-01-30T11:13:30.508Z,70.40
2019-01-30T11:16:24.707Z,66.70
2019-01-30T11:19:12.363Z,65.50
2019-01-30T11:21:57.565Z,64.20
2019-01-30T11:24:39.637Z,65.70
2019-01-30T11:27:22.251Z,65.30
2019-01-30T11:30:06.263Z,64.70
2019-01-30T11:32:49.326Z,65.00
2019-01-30T11:35:33.195Z,66.60
2019-01-30T11:38:11.857Z,67.20
2019-01-30T11:40:56.709Z,65.80
2019-01-30T11:43:44.692Z,64.70
2019-01-30T11:46:23.832Z,64.50
2019-01-30T11:49:04.913Z,66.80
2019-01-30T11:51:55.911Z,64.80
2019-01-30T11:54:38.874Z,63.70
2019-01-30T11:57:20.235Z,64.10
2019-01-30T12:00:10.848Z,64.80
2019-01-30T12:03:01.974Z,67.00
2019-01-30T12:05:46.934Z,64.80
2019-01-30T12:08:29.177Z,64.40
2019-01-30T12:11:12.284Z,63.60
2019-01-30T12:13:53.399Z,66.10
2019-01-30T12:16:33.068Z,65.70
2019-01-30T12:19:14.303Z,65.10
2019-01-30T12:21:52.209Z,65.00
2019-01-30T12:24:37.912Z,67.00
2019-01-30T12:27:27.884Z,67.80
2019-01-30T12:30:16.908Z,67.90
2019-01-30T12:32:57.112Z,69.60
2019-01-30T12:35:46.908Z,68.80
2019-01-30T12:38:29.977Z,68.90
2019-01-30T12:41:13.124Z,67.50
2019-01-30T12:43:57.606Z,67.70
2019-01-30T12:46:48.128Z,68.30
2019-01-30T12:49:42.374Z,68.80
2019-01-30T12:52:51.405Z,67.10
2019-01-30T12:55:58.332Z,65.40
2019-01-30T12:58:40.548Z,65.50
2019-01-30T13:01:30.942Z,65.50
2019-01-30T13:04:38.676Z,66.20
2019-01-30T13:07:39.805Z,64.90
2019-01-30T13:10:27.101Z,65.10
2019-01-30T13:13:29.546Z,66.30
2019-01-30T13:16:16.373Z,66.10
2019-01-30T13:18:59.715Z,66.20
2019-01-30T13:21:47.052Z,66.20
2019-01-30T13:24:41.750Z,67.00
2019-01-30T13:27:44.938Z,67.00
2019-01-30T13:30:43.892Z,67.00
2019-01-30T13:33:37.151Z,67.30
2019-01-30T13:36:22.512Z,67.30
2019-01-30T13:39:07.251Z,67.70
2019-01-30T13:42:04.624Z,67.80
2019-01-30T13:44:47.050Z,68.10
2019-01-30T13:47:46.173Z,68.20
2019-01-30T13:54:02.581Z,67.90
2019-01-30T13:56:56.750Z,68.40
2019-01-30T14:04:00.336Z,67.70
2019-01-30T14:07:24.115Z,68.60
2019-01-30T14:13:30.167Z,68.70
2019-01-30T14:16:23.517Z,68.10
2019-01-30T14:19:33.560Z,67.90
2019-01-30T14:22:37.713Z,68.20
2019-01-30T14:25:37.369Z,68.70
2019-01-30T14:28:17.511Z,69.00
2019-01-30T14:31:09.503Z,68.10
2019-01-30T14:34:27.302Z,68.00
2019-01-30T14:40:33.952Z,68.60
2019-01-30T14:43:52.333Z,68.70
2019-01-30T14:46:58.877Z,68.90
2019-01-30T14:50:00.523Z,68.70
2019-01-30T14:53:15.366Z,68.60
2019-01-30T14:56:13.965Z,69.10
2019-01-30T14:59:15.598Z,69.30
2019-01-30T15:02:15.472Z,69.20
2019-01-30T15:05:21.784Z,68.80
2019-01-30T15:08:03.670Z,68.90
2019-01-30T15:11:19.919Z,69.10
2019-01-30T15:14:10.440Z,69.20
2019-01-30T15:17:16.784Z,69.30
2019-01-30T15:20:02.834Z,70.20
2019-01-30T15:23:04.917Z,69.40
2019-01-30T15:25:50.779Z,69.40
2019-01-30T15:28:47.903Z,69.20
2019-01-30T15:31:43.114Z,69.40
2019-01-30T15:34:28.488Z,69.30
2019-01-30T15:37:12.325Z,69.20
2019-01-30T15:40:13.526Z,69.30
2019-01-30T15:43:23.926Z,69.40
2019-01-30T15:46:30.484Z,69.30
2019-01-30T15:49:17.164Z,69.70
2019-01-30T15:52:07.706Z,69.60
2019-01-30T15:55:19.165Z,70.00
2019-01-30T15:58:25.158Z,69.60
2019-01-30T16:01:15.034Z,70.00
2019-01-30T16:04:05.952Z,70.10
2019-01-30T16:06:52.417Z,70.10
2019-01-30T16:09:40.354Z,70.70
2019-01-30T16:12:37.532Z,70.10
2019-01-30T16:15:38.695Z,70.10
2019-01-30T16:18:45.836Z,70.00
2019-01-30T16:21:50.941Z,70.30
2019-01-30T16:24:53.427Z,70.00
2019-01-30T16:30:50.179Z,70.30
2019-01-30T16:33:44.490Z,70.50
2019-01-30T16:36:35.578Z,70.10
2019-01-30T16:39:29.213Z,69.80
2019-01-30T16:42:18.145Z,70.10
2019-01-30T16:45:18.811Z,69.80
2019-01-30T16:48:04.062Z,69.80
2019-01-30T16:50:51.721Z,69.90
2019-01-30T16:53:42.127Z,69.40
2019-01-30T16:56:34.933Z,69.60
2019-01-30T16:59:34.211Z,69.90
2019-01-30T17:02:16.272Z,70.20
2019-01-30T17:05:03.269Z,69.90
2019-01-30T17:07:49.428Z,70.00
2019-01-30T17:10:31.441Z,70.20
2019-01-30T17:13:12.764Z,69.80
2019-01-30T17:15:56.026Z,69.80
2019-01-30T17:18:35.785Z,69.60
2019-01-30T17:21:16.723Z,69.10
2019-01-30T17:24:02.486Z,69.50
2019-01-30T17:26:42.291Z,69.80
2019-01-30T17:29:22.719Z,69.50
2019-01-30T17:31:59.186Z,69.50
2019-01-30T17:34:43.285Z,69.10
2019-01-30T17:37:25.282Z,69.20
2019-01-30T17:40:03.522Z,69.30
2019-01-30T17:42:43.180Z,69.30
2019-01-30T17:45:22.199Z,70.30
2019-01-30T17:48:02.193Z,69.80
2019-01-30T17:50:40.467Z,69.60
2019-01-30T17:53:17.790Z,69.90
2019-01-30T17:55:57.676Z,69.90
2019-01-30T17:58:37.615Z,69.80
2019-01-30T18:01:18.748Z,69.90
2019-01-30T18:03:58.117Z,70.00
2019-01-30T18:06:36.644Z,70.10
2019-01-30T18:09:17.779Z,69.90
2019-01-30T18:12:03.040Z,70.10
2019-01-30T18:14:43.653Z,70.10
2019-01-30T18:17:22.717Z,70.10
2019-01-30T18:20:02.370Z,70.40
2019-01-30T18:22:40.502Z,70.30
2019-01-30T18:25:18.900Z,70.50
2019-01-30T18:27:56.656Z,70.10
2019-01-30T18:30:34.768Z,70.30
2019-01-30T18:33:15.634Z,70.20
2019-01-30T18:35:54.965Z,70.20
2019-01-30T18:38:35.958Z,70.00
2019-01-30T18:41:13.261Z,70.20
2019-01-30T18:43:51.372Z,70.00
2019-01-30T18:46:29.275Z,70.00
2019-01-30T18:49:12.119Z,70.00
2019-01-30T18:51:54.078Z,70.00
2019-01-30T18:54:32.202Z,70.10
2019-01-30T18:57:10.069Z,70.40
2019-01-30T18:59:48.286Z,70.50
2019-01-30T19:02:26.084Z,70.30
2019-01-30T19:05:07.440Z,70.50
2019-01-30T19:07:45.550Z,70.40
2019-01-30T19:10:23.340Z,70.50
2019-01-30T19:13:05.562Z,70.50
2019-01-30T19:15:44.842Z,70.60
2019-01-30T19:18:23.859Z,70.50
2019-01-30T19:21:02.068Z,70.40
2019-01-30T19:23:41.015Z,70.70
2019-01-30T19:26:19.422Z,70.60
2019-01-30T19:28:57.935Z,70.70
2019-01-30T19:31:37.199Z,70.50
2019-01-30T19:34:16.024Z,70.60
2019-01-30T19:37:03.242Z,70.50
2019-01-30T19:39:32.426Z,70.60
2019-01-30T19:42:10.268Z,70.90
2019-01-30T19:44:47.931Z,70.90
2019-01-30T19:47:26.204Z,70.60
2019-01-30T19:50:06.512Z,70.70
2019-01-30T19:52:43.506Z,71.10
2019-01-30T19:55:21.018Z,71.00
2019-01-30T19:58:00.851Z,71.00
2019-01-30T20:00:44.627Z,71.00
2019-01-30T20:03:25.625Z,71.00
2019-01-30T20:06:04.084Z,71.00
2019-01-30T20:08:42.051Z,71.00
2019-01-30T20:11:22.411Z,71.40
2019-01-30T20:14:00.109Z,71.30
2019-01-30T20:16:39.088Z,71.50
2019-01-30T20:19:17.391Z,71.60
2019-01-30T20:21:55.104Z,71.60
2019-01-30T20:24:32.719Z,71.70
2019-01-30T20:27:10.626Z,71.40
2019-01-30T20:29:49.541Z,71.30
2019-01-30T20:32:28.141Z,71.10
2019-01-30T20:35:05.733Z,71.60
2019-01-30T20:37:45.765Z,71.80
2019-01-30T20:40:25.293Z,71.60
2019-01-30T20:43:04.623Z,71.60
2019-01-30T20:45:42.294Z,71.60
2019-01-30T20:48:20.907Z,71.40
2019-01-30T20:50:59.361Z,71.10
2019-01-30T20:53:37.453Z,71.40
2019-01-30T20:56:14.896Z,71.10
2019-01-30T20:58:53.093Z,71.40
2019-01-30T21:01:30.471Z,71.40
2019-01-30T21:04:09.602Z,70.90
2019-01-30T21:06:47.650Z,71.40
2019-01-30T21:09:25.646Z,71.50
2019-01-30T21:12:02.936Z,71.40
2019-01-30T21:14:40.885Z,71.40
2019-01-30T21:17:19.945Z,71.40
2019-01-30T21:19:58.280Z,71.40
2019-01-30T21:22:36.337Z,71.50
2019-01-30T21:25:17.767Z,71.40
2019-01-30T21:27:56.250Z,71.40
2019-01-30T21:30:36.143Z,71.40
2019-01-30T21:33:15.323Z,71.40
2019-01-30T21:35:53.758Z,71.40
2019-01-30T21:38:31.587Z,71.50
2019-01-30T21:41:10.340Z,71.50
2019-01-30T21:43:47.313Z,71.50
2019-01-30T21:46:24.805Z,71.40
2019-01-30T21:49:03.540Z,71.70
2019-01-30T21:51:42.213Z,71.50
2019-01-30T21:54:21.387Z,71.80
2019-01-30T21:56:59.381Z,71.60
2019-01-30T21:59:36.932Z,71.90
2019-01-30T22:02:14.552Z,71.90
2019-01-30T22:04:54.044Z,72.20
2019-01-30T22:07:32.027Z,72.20
2019-01-30T22:10:13.204Z,72.30
2019-01-30T22:12:55.516Z,72.20
2019-01-30T22:15:33.202Z,72.10
2019-01-30T22:18:11.721Z,72.80
2019-01-30T22:20:50.150Z,72.00
2019-01-30T22:23:28.330Z,71.80
2019-01-30T22:26:06.557Z,72.20
2019-01-30T22:28:44.594Z,72.30
2019-01-30T22:31:22.266Z,72.10
2019-01-30T22:34:01.174Z,72.20
2019-01-30T22:36:39.592Z,72.20
2019-01-30T22:39:20.101Z,72.20
2019-01-30T22:41:58.180Z,72.20
2019-01-30T22:44:36.447Z,72.30
2019-01-30T22:47:14.371Z,72.50
2019-01-30T22:49:52.373Z,72.30
2019-01-30T22:52:30.090Z,72.40
2019-01-30T22:55:08.373Z,72.60
2019-01-30T22:57:46.098Z,72.50
2019-01-30T23:01:05.608Z,72.20
2019-01-30T23:04:10.105Z,72.00
2019-01-30T23:06:59.876Z,71.70
2019-01-30T23:10:15.686Z,71.70
2019-01-30T23:13:26.988Z,71.60
2019-01-30T23:16:24.559Z,71.30
2019-01-30T23:19:25.112Z,71.40
2019-01-30T23:22:19.962Z,71.80
2019-01-30T23:25:33.029Z,72.00
2019-01-30T23:28:49.054Z,73.30
2019-01-30T23:31:47.253Z,73.50
2019-01-30T23:35:20.612Z,71.60
2019-01-30T23:38:40.534Z,71.60
2019-01-30T23:41:51.271Z,72.10
2019-01-30T23:44:59.740Z,72.30
2019-01-30T23:48:14.743Z,72.40
2019-01-30T23:51:19.245Z,73.60
2019-01-30T23:54:39.024Z,75.10
2019-01-30T23:57:54.450Z,74.00
